Time;durP1;ratioP1;P1;durP2;ratioP2;P2;SDS_P1;SDS_P2;PMS_P1;PMS_P2;Temp;Humidity;BMP_temperature;BMP_pressure;BME280_temperature;BME280_humidity;BME280_pressure;Samples;Min_cycle;Max_cycle;Signal;HPM_P1;HPM_P2
2022/03/16 00:01:29;;;;;;;16.70;12.27;;;2.80;99.90;;;;;;5021234;28;20172;-81
2022/03/16 00:03:54;;;;;;;22.63;12.53;;;2.80;99.90;;;;;;5030115;28;20183;-82
2022/03/16 00:06:20;;;;;;;24.27;11.93;;;2.80;99.90;;;;;;5020424;28;20300;-82
2022/03/16 00:08:46;;;;;;;19.83;12.27;;;2.70;99.90;;;;;;5021462;28;20183;-81
2022/03/16 00:11:13;;;;;;;11.63;10.33;;;2.60;99.90;;;;;;5020037;28;20199;-81
2022/03/16 00:13:38;;;;;;;16.23;12.00;;;2.60;99.90;;;;;;5019939;28;20234;-81
2022/03/16 00:16:05;;;;;;;13.97;11.47;;;2.70;99.90;;;;;;5020654;28;20199;-81
2022/03/16 00:18:30;;;;;;;13.33;11.40;;;2.70;99.90;;;;;;5019425;28;20172;-82
2022/03/16 00:20:58;;;;;;;14.07;12.57;;;2.80;99.90;;;;;;5019460;28;20183;-82
2022/03/16 00:23:27;;;;;;;18.67;12.17;;;2.70;99.90;;;;;;5019437;28;20180;-82
2022/03/16 00:25:52;;;;;;;19.93;12.20;;;2.80;99.90;;;;;;5020408;28;20685;-81
2022/03/16 00:28:18;;;;;;;16.67;12.30;;;2.80;99.90;;;;;;5019199;28;20175;-82
2022/03/16 00:30:44;;;;;;;14.13;11.57;;;2.70;99.90;;;;;;5018588;28;20179;-82
2022/03/16 00:33:13;;;;;;;17.97;11.47;;;2.70;99.90;;;;;;5019488;28;20179;-82
2022/03/16 00:35:39;;;;;;;12.80;11.47;;;2.60;99.90;;;;;;5018822;28;20240;-81
2022/03/16 00:38:05;;;;;;;14.57;12.57;;;2.60;99.90;;;;;;5019204;28;20176;-81
2022/03/16 00:40:34;;;;;;;20.97;13.20;;;2.60;99.90;;;;;;5018202;28;20306;-82
2022/03/16 00:43:00;;;;;;;16.13;11.97;;;2.60;99.90;;;;;;5019451;28;20172;-81
2022/03/16 00:45:26;;;;;;;17.40;12.00;;;2.50;99.90;;;;;;5020388;28;20563;-81
2022/03/16 00:47:52;;;;;;;13.70;12.07;;;2.60;99.90;;;;;;5020373;28;20179;-82
2022/03/16 00:50:18;;;;;;;16.23;13.53;;;2.60;99.90;;;;;;5018913;28;20610;-82
2022/03/16 00:52:43;;;;;;;18.43;13.07;;;2.60;99.90;;;;;;5019112;28;20184;-82
2022/03/16 00:55:09;;;;;;;15.10;13.23;;;2.60;99.90;;;;;;5019736;28;20270;-80
2022/03/16 00:57:35;;;;;;;17.57;13.37;;;2.50;99.90;;;;;;5018743;28;20176;-79
2022/03/16 01:00:02;;;;;;;14.30;12.80;;;2.30;99.90;;;;;;5017619;28;20175;-79
2022/03/16 01:02:28;;;;;;;14.60;12.37;;;2.30;99.90;;;;;;5017858;28;20176;-78
2022/03/16 01:04:54;;;;;;;14.80;13.27;;;2.40;99.90;;;;;;5017401;28;20218;-78
2022/03/16 01:07:19;;;;;;;15.30;12.80;;;2.40;99.90;;;;;;5017159;28;20176;-78
2022/03/16 01:09:45;;;;;;;22.27;13.10;;;2.40;99.90;;;;;;5019037;28;20591;-78
2022/03/16 01:12:11;;;;;;;17.67;14.23;;;2.20;99.90;;;;;;5017134;28;20527;-78
2022/03/16 01:14:37;;;;;;;17.50;13.97;;;2.10;99.90;;;;;;5017938;28;20258;-78
2022/03/16 01:17:03;;;;;;;21.03;14.43;;;2.20;99.90;;;;;;5018150;28;20180;-82
2022/03/16 01:19:29;;;;;;;19.63;14.67;;;2.20;99.90;;;;;;5020110;28;20182;-79
2022/03/16 01:21:55;;;;;;;24.50;13.57;;;2.10;99.90;;;;;;5017135;28;20253;-79
2022/03/16 01:24:21;;;;;;;27.57;13.20;;;2.00;99.90;;;;;;5000778;28;20654;-79
2022/03/16 01:26:46;;;;;;;49.63;13.53;;;1.80;99.90;;;;;;5017431;28;20203;-79
2022/03/16 01:29:12;;;;;;;28.60;13.43;;;1.60;99.90;;;;;;5017134;28;20234;-79
2022/03/16 01:31:38;;;;;;;25.33;13.73;;;1.50;99.90;;;;;;5021915;28;20207;-78
2022/03/16 01:34:04;;;;;;;43.17;14.57;;;1.50;99.90;;;;;;5016813;28;20204;-78
2022/03/16 01:36:30;;;;;;;15.20;12.63;;;1.40;99.90;;;;;;5016972;28;20195;-79
2022/03/16 01:38:56;;;;;;;21.67;13.47;;;1.40;99.90;;;;;;5016883;28;20183;-79
2022/03/16 01:41:21;;;;;;;20.57;13.63;;;1.50;99.90;;;;;;5017693;28;20189;-79
2022/03/16 01:43:56;;;;;;;17.87;13.03;;;1.50;99.90;;;;;;5017226;28;20178;-77
2022/03/16 01:46:22;;;;;;;29.07;13.50;;;1.60;99.90;;;;;;5017420;28;20190;-81
2022/03/16 01:48:50;;;;;;;19.00;14.33;;;1.50;99.90;;;;;;5021265;28;20215;-79
2022/03/16 01:51:16;;;;;;;20.30;13.33;;;1.60;99.90;;;;;;5019335;28;20169;-81
2022/03/16 01:53:42;;;;;;;28.10;15.27;;;1.60;99.90;;;;;;5020669;28;20253;-81
2022/03/16 01:56:09;;;;;;;25.77;14.57;;;1.60;99.90;;;;;;5019707;28;20192;-81
2022/03/16 01:58:35;;;;;;;21.63;13.37;;;1.60;99.90;;;;;;5017684;28;20544;-81
2022/03/16 02:01:01;;;;;;;30.40;14.30;;;1.60;99.90;;;;;;5016548;28;20172;-80
2022/03/16 02:03:27;;;;;;;27.40;13.37;;;1.60;99.90;;;;;;5017677;28;20178;-81
2022/03/16 02:05:54;;;;;;;39.93;14.70;;;1.60;99.90;;;;;;5017582;28;20578;-81
2022/03/16 02:08:19;;;;;;;53.43;14.90;;;1.50;99.90;;;;;;5017566;28;20184;-81
2022/03/16 02:10:45;;;;;;;54.37;14.43;;;1.30;99.90;;;;;;5017793;28;20210;-81
2022/03/16 02:13:12;;;;;;;28.17;13.77;;;1.20;99.90;;;;;;5019341;28;20183;-80
2022/03/16 02:15:38;;;;;;;30.07;13.53;;;1.20;99.90;;;;;;5018915;28;20236;-79
2022/03/16 02:18:04;;;;;;;28.67;13.17;;;1.30;99.90;;;;;;5016692;28;20197;-79
2022/03/16 02:20:30;;;;;;;22.17;13.10;;;1.30;99.90;;;;;;5015913;28;20179;-79
2022/03/16 02:22:56;;;;;;;35.53;13.97;;;1.40;99.90;;;;;;5016958;28;20176;-79
2022/03/16 02:25:24;;;;;;;27.47;14.00;;;1.40;99.90;;;;;;5015704;28;20234;-79
2022/03/16 02:27:52;;;;;;;39.60;13.30;;;1.40;99.90;;;;;;5016337;28;20183;-79
2022/03/16 02:30:19;;;;;;;39.83;13.83;;;1.50;99.90;;;;;;5017466;28;20168;-80
2022/03/16 02:32:44;;;;;;;44.47;14.93;;;1.30;99.90;;;;;;5016681;28;20186;-79
2022/03/16 02:35:10;;;;;;;51.23;14.20;;;1.20;99.90;;;;;;5019167;28;20271;-79
2022/03/16 02:37:38;;;;;;;37.63;12.80;;;0.90;99.90;;;;;;5018650;28;20176;-79
2022/03/16 02:40:05;;;;;;;39.87;14.13;;;0.80;99.90;;;;;;5018390;28;20156;-79
2022/03/16 02:42:30;;;;;;;33.90;13.20;;;0.70;99.90;;;;;;5020868;28;20172;-79
2022/03/16 02:44:56;;;;;;;38.20;13.17;;;0.70;99.90;;;;;;5021654;28;20183;-79
2022/03/16 02:47:21;;;;;;;39.03;14.33;;;0.80;99.90;;;;;;5015841;28;20219;-79
2022/03/16 02:49:48;;;;;;;46.17;14.13;;;0.90;99.90;;;;;;5016584;28;20183;-81
2022/03/16 02:52:14;;;;;;;21.87;13.20;;;0.90;99.90;;;;;;5016034;28;20191;-82
2022/03/16 02:54:39;;;;;;;30.17;14.43;;;0.80;99.90;;;;;;5015377;28;20402;-82
2022/03/16 02:57:05;;;;;;;17.63;13.03;;;0.80;99.90;;;;;;5015655;28;20176;-82
2022/03/16 02:59:31;;;;;;;20.17;13.57;;;0.90;99.90;;;;;;5015547;28;20179;-82
2022/03/16 03:01:56;;;;;;;20.10;14.20;;;1.00;99.90;;;;;;5015715;28;20645;-83
2022/03/16 03:04:22;;;;;;;40.23;16.10;;;1.00;99.90;;;;;;5016685;28;20550;-82
2022/03/16 03:06:48;;;;;;;52.37;15.53;;;1.10;99.90;;;;;;5015752;28;20216;-82
2022/03/16 03:09:14;;;;;;;60.13;17.20;;;1.00;99.90;;;;;;5016385;28;20245;-82
2022/03/16 03:11:40;;;;;;;65.70;17.60;;;1.00;99.90;;;;;;5016357;28;20207;-81
2022/03/16 03:14:06;;;;;;;26.83;15.67;;;1.00;99.90;;;;;;5016722;28;20664;-81
2022/03/16 03:16:31;;;;;;;34.07;15.27;;;1.00;99.90;;;;;;5016335;28;20196;-80
2022/03/16 03:18:58;;;;;;;23.13;14.33;;;1.10;99.90;;;;;;5015684;28;20204;-80
2022/03/16 03:21:24;;;;;;;26.53;14.83;;;1.30;99.90;;;;;;5015001;28;20664;-80
2022/03/16 03:23:50;;;;;;;19.83;14.40;;;1.30;99.90;;;;;;5016090;28;20180;-80
2022/03/16 03:26:15;;;;;;;34.13;15.73;;;1.30;99.90;;;;;;5017262;28;20196;-80
2022/03/16 03:28:41;;;;;;;26.90;14.03;;;1.30;99.90;;;;;;5017473;28;20172;-80
2022/03/16 03:31:07;;;;;;;26.13;14.83;;;1.30;99.90;;;;;;5014866;28;20195;-80
2022/03/16 03:33:32;;;;;;;28.40;15.00;;;1.40;99.90;;;;;;5014850;28;20183;-80
2022/03/16 03:35:58;;;;;;;28.70;14.67;;;1.40;99.90;;;;;;5014523;28;20219;-80
2022/03/16 03:38:23;;;;;;;24.90;14.93;;;1.50;99.90;;;;;;5014351;28;20258;-80
2022/03/16 03:40:49;;;;;;;22.50;13.77;;;1.40;99.90;;;;;;5014305;28;20176;-81
2022/03/16 03:43:15;;;;;;;27.53;12.63;;;1.40;99.90;;;;;;5014075;28;20182;-81
2022/03/16 03:45:40;;;;;;;21.33;13.20;;;1.40;99.90;;;;;;5014038;28;20208;-81
2022/03/16 03:48:06;;;;;;;28.67;13.20;;;1.20;99.90;;;;;;5013857;28;20713;-81
2022/03/16 03:50:32;;;;;;;27.93;13.77;;;1.20;99.90;;;;;;5014155;28;20266;-80
2022/03/16 03:52:57;;;;;;;24.17;12.73;;;1.20;99.90;;;;;;5015277;28;20176;-81
2022/03/16 03:55:23;;;;;;;16.53;12.80;;;1.10;99.90;;;;;;5015627;28;20211;-81
2022/03/16 03:57:49;;;;;;;20.67;11.73;;;1.10;99.90;;;;;;5014735;28;20183;-81
2022/03/16 04:00:15;;;;;;;25.63;13.17;;;1.10;99.90;;;;;;5014596;28;20171;-81
2022/03/16 04:02:51;;;;;;;21.23;12.70;;;1.10;99.90;;;;;;5014351;28;20595;-81
2022/03/16 04:05:18;;;;;;;38.27;13.63;;;1.00;99.90;;;;;;5014450;28;20211;-81
2022/03/16 04:07:44;;;;;;;22.23;13.27;;;1.10;99.90;;;;;;5014049;28;20274;-81
2022/03/16 04:10:10;;;;;;;27.00;12.27;;;1.10;99.90;;;;;;5014067;28;20190;-81
2022/03/16 04:12:36;;;;;;;24.80;13.83;;;1.10;99.90;;;;;;5014482;28;20182;-80
2022/03/16 04:15:03;;;;;;;20.23;13.33;;;1.10;99.90;;;;;;5015384;28;20235;-81
2022/03/16 04:17:28;;;;;;;23.43;13.13;;;1.10;99.90;;;;;;5013700;28;20183;-81
2022/03/16 04:19:54;;;;;;;22.97;13.67;;;1.10;99.90;;;;;;5014100;28;20168;-81
2022/03/16 04:22:20;;;;;;;19.97;13.43;;;1.00;99.90;;;;;;5013904;28;20186;-81
2022/03/16 04:24:46;;;;;;;29.00;13.50;;;1.00;99.90;;;;;;5014074;28;20176;-81
2022/03/16 04:27:11;;;;;;;19.50;13.97;;;1.10;99.90;;;;;;5014096;28;20180;-81
2022/03/16 04:29:37;;;;;;;22.20;14.00;;;1.20;99.90;;;;;;5013668;28;20180;-81
2022/03/16 04:32:03;;;;;;;25.50;14.70;;;1.10;99.90;;;;;;5015489;28;20586;-81
2022/03/16 04:34:29;;;;;;;45.90;14.93;;;1.10;99.90;;;;;;5018339;28;20231;-81
2022/03/16 04:36:55;;;;;;;49.57;15.47;;;1.10;99.90;;;;;;5017348;28;20541;-81
2022/03/16 04:39:20;;;;;;;25.83;15.03;;;1.20;99.90;;;;;;5017231;28;20180;-81
2022/03/16 04:41:46;;;;;;;26.67;14.10;;;1.10;99.90;;;;;;5017610;28;20182;-81
2022/03/16 04:44:12;;;;;;;25.90;14.67;;;1.10;99.90;;;;;;5018320;28;20183;-83
2022/03/16 04:46:37;;;;;;;25.50;15.33;;;1.10;99.90;;;;;;5017693;28;20196;-83
2022/03/16 04:49:03;;;;;;;21.50;13.53;;;0.90;99.90;;;;;;5018208;28;20202;-83
2022/03/16 04:51:29;;;;;;;25.73;13.57;;;0.90;99.90;;;;;;5019302;28;20183;-83
2022/03/16 04:53:54;;;;;;;23.40;14.83;;;0.90;99.90;;;;;;5018005;28;20184;-83
2022/03/16 04:56:20;;;;;;;29.77;15.13;;;0.90;99.90;;;;;;5017943;28;20199;-82
2022/03/16 04:58:46;;;;;;;25.97;15.87;;;0.90;99.90;;;;;;5017130;28;20520;-82
2022/03/16 05:01:12;;;;;;;27.97;16.10;;;0.90;99.90;;;;;;5016266;28;20187;-82
2022/03/16 05:03:37;;;;;;;24.67;14.87;;;0.90;99.90;;;;;;5016980;28;20180;-82
2022/03/16 05:06:04;;;;;;;28.77;15.77;;;0.90;99.90;;;;;;5016833;28;20223;-82
2022/03/16 05:08:35;;;;;;;34.50;16.77;;;0.90;99.90;;;;;;5016828;28;20207;-80
2022/03/16 05:11:02;;;;;;;28.30;16.83;;;0.90;99.90;;;;;;5016799;28;20188;-80
2022/03/16 05:13:28;;;;;;;32.53;17.37;;;0.90;99.90;;;;;;5017643;28;20186;-80
2022/03/16 05:15:53;;;;;;;26.40;16.17;;;0.90;99.90;;;;;;5017366;28;20211;-81
2022/03/16 05:18:19;;;;;;;28.60;17.50;;;0.90;99.90;;;;;;5016456;28;20191;-81
2022/03/16 05:20:45;;;;;;;51.03;18.10;;;0.90;99.90;;;;;;5016539;28;20184;-81
2022/03/16 05:23:10;;;;;;;38.30;18.40;;;1.00;99.90;;;;;;5016452;28;20242;-82
2022/03/16 05:25:36;;;;;;;36.10;17.10;;;0.90;99.90;;;;;;5016933;28;20203;-78
2022/03/16 05:28:02;;;;;;;27.40;17.33;;;0.80;99.90;;;;;;5024576;28;20180;-77
2022/03/16 05:30:28;;;;;;;35.73;18.50;;;0.80;99.90;;;;;;5018062;28;20238;-77
2022/03/16 05:32:57;;;;;;;46.00;18.97;;;0.90;99.90;;;;;;5016601;28;20589;-77
2022/03/16 05:35:23;;;;;;;33.80;19.53;;;0.70;99.90;;;;;;5015851;28;20246;-78
2022/03/16 05:37:49;;;;;;;35.13;18.60;;;0.70;99.90;;;;;;5017681;28;20267;-78
2022/03/16 05:40:14;;;;;;;25.80;17.77;;;0.80;99.90;;;;;;5017643;28;20168;-79
2022/03/16 05:42:40;;;;;;;27.50;17.47;;;0.70;99.90;;;;;;5018618;28;20183;-79
2022/03/16 05:45:07;;;;;;;31.87;18.07;;;0.70;99.90;;;;;;5017500;28;20250;-79
2022/03/16 05:47:33;;;;;;;24.37;17.83;;;0.70;99.90;;;;;;5017459;28;20213;-79
2022/03/16 05:49:58;;;;;;;20.10;16.50;;;0.70;99.90;;;;;;5017196;28;20186;-79
2022/03/16 05:52:25;;;;;;;19.00;16.37;;;0.70;99.90;;;;;;5000890;28;20194;-79
2022/03/16 05:54:53;;;;;;;21.83;16.13;;;0.60;99.90;;;;;;5016617;28;20257;-79
2022/03/16 05:57:19;;;;;;;21.83;16.13;;;0.50;99.90;;;;;;5016187;28;20179;-79
2022/03/16 05:59:46;;;;;;;23.47;15.80;;;0.60;99.90;;;;;;5015997;28;20610;-79
2022/03/16 06:02:12;;;;;;;21.20;16.03;;;0.50;99.90;;;;;;5017341;28;20183;-79
2022/03/16 06:04:39;;;;;;;21.47;16.20;;;0.50;99.90;;;;;;5016228;28;20204;-79
2022/03/16 06:07:06;;;;;;;22.33;16.77;;;0.60;99.90;;;;;;5016486;28;20294;-79
2022/03/16 06:09:32;;;;;;;26.33;17.10;;;0.70;99.90;;;;;;5018345;28;20259;-80
2022/03/16 06:11:59;;;;;;;26.47;17.40;;;0.70;99.90;;;;;;5017368;28;20184;-80
2022/03/16 06:14:25;;;;;;;23.20;16.63;;;0.80;99.90;;;;;;5020476;28;20238;-80
2022/03/16 06:16:52;;;;;;;23.73;17.70;;;0.90;99.90;;;;;;5017673;28;20207;-80
2022/03/16 06:19:19;;;;;;;20.83;15.80;;;0.90;99.90;;;;;;5018197;28;20222;-80
2022/03/16 06:21:45;;;;;;;24.47;16.93;;;1.00;99.90;;;;;;5016897;28;20203;-80
2022/03/16 06:24:11;;;;;;;20.37;16.00;;;1.10;99.90;;;;;;5000680;28;20267;-80
2022/03/16 06:26:38;;;;;;;18.90;15.37;;;1.10;99.90;;;;;;5021813;28;20210;-80
2022/03/16 06:29:03;;;;;;;19.87;16.03;;;1.20;99.90;;;;;;5022552;28;20204;-79
2022/03/16 06:31:29;;;;;;;19.27;15.30;;;1.20;99.90;;;;;;5022243;28;20188;-79
2022/03/16 06:33:55;;;;;;;23.23;16.83;;;1.20;99.90;;;;;;5017396;28;20636;-79
2022/03/16 06:36:21;;;;;;;21.53;16.90;;;1.10;99.90;;;;;;5016916;28;20200;-79
2022/03/16 06:38:47;;;;;;;22.20;16.37;;;1.20;99.90;;;;;;5016938;28;20171;-79
2022/03/16 06:41:12;;;;;;;23.43;17.10;;;1.30;99.90;;;;;;5015795;28;20176;-79
2022/03/16 06:43:38;;;;;;;23.20;17.00;;;1.40;99.90;;;;;;5015416;28;20662;-79
2022/03/16 06:46:04;;;;;;;22.10;16.77;;;1.40;99.90;;;;;;5017849;28;20743;-80
2022/03/16 06:48:29;;;;;;;26.20;17.63;;;1.50;99.90;;;;;;5016202;28;20640;-80
2022/03/16 06:50:55;;;;;;;24.77;17.07;;;1.50;99.90;;;;;;5017473;28;20207;-80
2022/03/16 06:53:21;;;;;;;24.87;18.13;;;1.60;99.90;;;;;;5016506;28;20176;-80
2022/03/16 06:55:47;;;;;;;21.77;17.80;;;1.60;99.90;;;;;;5014492;28;20239;-80
2022/03/16 06:58:13;;;;;;;23.03;17.20;;;1.70;99.90;;;;;;5016095;28;20214;-79
2022/03/16 07:00:39;;;;;;;24.20;18.17;;;1.70;99.90;;;;;;5017054;28;20179;-79
2022/03/16 07:03:05;;;;;;;24.20;17.87;;;1.80;99.90;;;;;;5016444;28;20583;-81
2022/03/16 07:05:34;;;;;;;25.33;17.00;;;1.90;99.90;;;;;;5018219;28;20218;-79
2022/03/16 07:08:02;;;;;;;23.47;17.53;;;2.10;99.90;;;;;;5017042;28;20184;-81
2022/03/16 07:10:30;;;;;;;26.87;17.00;;;2.20;99.90;;;;;;5019098;28;20183;-82
2022/03/16 07:12:56;;;;;;;22.33;16.53;;;2.30;99.90;;;;;;5016883;28;20176;-79
2022/03/16 07:15:22;;;;;;;24.27;16.17;;;2.40;99.90;;;;;;5018620;28;20314;-79
2022/03/16 07:17:48;;;;;;;21.60;16.57;;;2.50;99.90;;;;;;5016797;28;20287;-78
2022/03/16 07:20:14;;;;;;;21.97;16.67;;;2.50;99.90;;;;;;5015378;28;20207;-78
2022/03/16 07:22:40;;;;;;;21.07;15.73;;;2.60;99.90;;;;;;5016525;28;20199;-78
2022/03/16 07:25:09;;;;;;;20.73;15.83;;;2.60;99.90;;;;;;5014389;28;20290;-78
2022/03/16 07:27:40;;;;;;;20.80;16.03;;;2.70;99.90;;;;;;5014327;28;20180;-77
2022/03/16 07:30:08;;;;;;;24.63;17.50;;;2.90;99.90;;;;;;5015352;28;20161;-78
2022/03/16 07:32:39;;;;;;;20.00;15.43;;;3.10;99.90;;;;;;5014016;28;20649;-80
2022/03/16 07:35:11;;;;;;;21.33;16.53;;;3.30;99.90;;;;;;5014148;28;20713;-81
2022/03/16 07:37:38;;;;;;;21.27;16.37;;;3.40;99.90;;;;;;5014259;28;20183;-83
2022/03/16 07:40:05;;;;;;;22.87;17.33;;;3.60;99.90;;;;;;5014332;28;20266;-81
2022/03/16 07:42:30;;;;;;;22.67;16.93;;;3.80;99.90;;;;;;5013954;28;20211;-81
2022/03/16 07:44:57;;;;;;;27.03;18.30;;;4.00;99.90;;;;;;5014132;28;20661;-81
2022/03/16 07:47:26;;;;;;;23.97;18.33;;;4.20;99.90;;;;;;5014178;28;20184;-81
2022/03/16 07:49:52;;;;;;;30.30;19.57;;;4.40;99.90;;;;;;5015506;28;20199;-81
2022/03/16 07:52:20;;;;;;;25.83;18.10;;;4.70;99.90;;;;;;5015730;28;20612;-81
2022/03/16 07:54:45;;;;;;;26.40;18.33;;;4.80;99.90;;;;;;5013949;28;20670;-81
2022/03/16 07:57:11;;;;;;;26.60;17.70;;;5.00;99.90;;;;;;5015434;28;20182;-81
2022/03/16 07:59:37;;;;;;;23.67;17.50;;;5.20;99.90;;;;;;5013877;28;20180;-80
2022/03/16 08:02:03;;;;;;;24.40;17.33;;;5.50;99.90;;;;;;5013866;28;20187;-80
2022/03/16 08:04:28;;;;;;;22.20;16.03;;;5.60;99.90;;;;;;5013829;28;20190;-80
2022/03/16 08:06:54;;;;;;;22.83;17.20;;;5.70;99.90;;;;;;5020003;28;20243;-82
2022/03/16 08:09:20;;;;;;;22.57;17.77;;;5.80;99.90;;;;;;5020102;28;20238;-82
2022/03/16 08:11:45;;;;;;;24.53;16.03;;;5.90;99.90;;;;;;5020297;28;20251;-82
2022/03/16 08:14:12;;;;;;;22.03;15.67;;;6.10;99.90;;;;;;5020267;28;20235;-82
2022/03/16 08:16:38;;;;;;;23.53;16.10;;;6.30;99.90;;;;;;5020439;28;20290;-81
2022/03/16 08:19:04;;;;;;;21.67;16.27;;;6.40;99.90;;;;;;5021334;28;20233;-81
2022/03/16 08:21:30;;;;;;;22.27;16.50;;;6.60;99.90;;;;;;5021908;28;20630;-81
2022/03/16 08:23:56;;;;;;;20.90;15.83;;;6.90;99.90;;;;;;5021036;28;20175;-81
2022/03/16 08:26:23;;;;;;;20.13;15.10;;;7.30;99.90;;;;;;5020551;28;20204;-81
2022/03/16 08:28:49;;;;;;;18.30;12.90;;;8.20;99.90;;;;;;5020461;28;20179;-81
2022/03/16 08:31:15;;;;;;;16.57;13.07;;;9.40;99.90;;;;;;5020969;28;20182;-81
2022/03/16 08:33:41;;;;;;;15.23;11.48;;;10.30;99.90;;;;;;5020602;28;20190;-81
2022/03/16 08:36:08;;;;;;;15.38;11.00;;;11.50;99.90;;;;;;5021946;28;20242;-81
2022/03/16 08:38:37;;;;;;;14.25;10.98;;;12.80;99.90;;;;;;5020516;28;20172;-81
2022/03/16 08:41:05;;;;;;;13.80;11.43;;;14.30;99.90;;;;;;5020774;28;20226;-81
2022/03/16 08:43:31;;;;;;;14.13;11.50;;;15.20;99.90;;;;;;5020160;28;20536;-81
2022/03/16 08:45:58;;;;;;;13.85;10.43;;;16.10;99.90;;;;;;5021423;28;20196;-81
2022/03/16 08:48:25;;;;;;;12.15;10.07;;;16.40;99.90;;;;;;5020483;28;20179;-81
2022/03/16 08:50:50;;;;;;;12.43;9.90;;;16.80;99.90;;;;;;5020167;28;20191;-81
2022/03/16 08:53:16;;;;;;;13.13;10.77;;;17.50;99.90;;;;;;5003911;28;20561;-81
2022/03/16 08:55:42;;;;;;;17.25;10.27;;;17.60;99.90;;;;;;5019787;28;20595;-82
2022/03/16 08:58:08;;;;;;;14.20;10.88;;;17.80;99.90;;;;;;5020355;28;20224;-82
2022/03/16 09:00:34;;;;;;;15.52;10.73;;;18.00;99.90;;;;;;5021940;28;20199;-82
2022/03/16 09:03:00;;;;;;;14.35;10.80;;;18.20;99.90;;;;;;5022282;28;20178;-82
2022/03/16 09:05:26;;;;;;;13.75;11.00;;;18.20;99.90;;;;;;5030645;28;20564;-82
2022/03/16 09:07:51;;;;;;;14.68;11.13;;;18.50;99.90;;;;;;5021078;28;20259;-82
2022/03/16 09:10:17;;;;;;;15.80;11.70;;;18.40;99.90;;;;;;5019876;28;20222;-82
2022/03/16 09:12:43;;;;;;;15.52;11.38;;;17.80;99.90;;;;;;5019664;28;20179;-82
2022/03/16 09:15:09;;;;;;;15.77;10.82;;;17.70;99.90;;;;;;5019564;28;20215;-82
2022/03/16 09:17:35;;;;;;;13.38;10.98;;;17.40;99.90;;;;;;5018813;28;20226;-82
2022/03/16 09:20:02;;;;;;;14.00;12.00;;;17.00;99.90;;;;;;5017168;28;20192;-82
2022/03/16 09:22:28;;;;;;;13.85;10.85;;;16.90;99.90;;;;;;5000354;28;20180;-82
2022/03/16 09:24:56;;;;;;;15.93;11.82;;;16.10;99.90;;;;;;5018377;28;20251;-82
2022/03/16 09:27:25;;;;;;;15.73;12.50;;;15.60;99.90;;;;;;5018534;28;20176;-82
2022/03/16 09:29:53;;;;;;;15.75;11.75;;;15.10;99.90;;;;;;5017089;28;20250;-82
2022/03/16 09:32:21;;;;;;;15.95;11.40;;;14.70;99.90;;;;;;5016307;28;20175;-82
2022/03/16 09:34:48;;;;;;;19.50;11.05;;;14.20;99.90;;;;;;5017664;28;20673;-82
2022/03/16 09:37:14;;;;;;;15.80;10.88;;;13.90;99.90;;;;;;5018392;28;20244;-81
2022/03/16 09:39:40;;;;;;;14.15;10.95;;;13.60;99.90;;;;;;5016190;28;20263;-81
2022/03/16 09:42:08;;;;;;;14.80;11.23;;;13.40;99.90;;;;;;5016789;28;20183;-81
2022/03/16 09:44:34;;;;;;;14.20;10.85;;;13.10;99.90;;;;;;5017539;28;20186;-81
2022/03/16 09:47:00;;;;;;;15.68;11.73;;;12.90;99.90;;;;;;5016651;28;20208;-81
2022/03/16 09:49:27;;;;;;;14.18;11.25;;;12.90;99.90;;;;;;5018268;28;20184;-81
2022/03/16 09:51:54;;;;;;;16.60;12.05;;;12.80;99.90;;;;;;5017700;28;20175;-82
2022/03/16 09:54:23;;;;;;;14.43;11.52;;;12.60;99.90;;;;;;5001030;28;20200;-82
2022/03/16 09:56:49;;;;;;;14.25;11.55;;;12.50;99.90;;;;;;5016957;28;20620;-82
2022/03/16 09:59:15;;;;;;;16.83;11.38;;;12.40;99.90;;;;;;5016747;28;20176;-82
2022/03/16 10:01:45;;;;;;;15.00;11.52;;;12.40;99.90;;;;;;5016869;28;20184;-82
2022/03/16 10:04:11;;;;;;;15.98;11.95;;;12.30;99.90;;;;;;5018552;28;20251;-81
2022/03/16 10:06:38;;;;;;;14.75;11.30;;;12.20;99.90;;;;;;5020412;28;20207;-81
2022/03/16 10:15:10;;;;;;;15.38;11.50;;;12.10;99.90;;;;;;5018185;28;20206;-80
2022/03/16 10:17:45;;;;;;;14.63;11.23;;;12.10;99.90;;;;;;5017321;28;20156;-81
2022/03/16 10:20:28;;;;;;;15.73;11.33;;;12.10;99.90;;;;;;5016012;28;20169;-81
2022/03/16 10:22:59;;;;;;;18.27;11.60;;;12.10;99.90;;;;;;5015868;28;20170;-81
2022/03/16 10:25:27;;;;;;;15.40;11.83;;;12.10;99.90;;;;;;5015757;28;20200;-80
2022/03/16 10:28:10;;;;;;;13.97;11.10;;;12.20;99.90;;;;;;5016680;28;20194;-81
2022/03/16 10:30:37;;;;;;;11.97;10.67;;;12.30;99.90;;;;;;5014893;28;20195;-81
2022/03/16 10:33:03;;;;;;;15.93;11.70;;;12.40;99.90;;;;;;5016426;28;20180;-80
2022/03/16 10:35:29;;;;;;;15.15;11.55;;;12.70;99.90;;;;;;5015241;28;20207;-80
2022/03/16 10:38:15;;;;;;;17.17;11.35;;;12.60;99.90;;;;;;5015822;28;20168;-80
2022/03/16 10:40:40;;;;;;;15.93;11.60;;;12.70;99.90;;;;;;5015795;28;20767;-81
2022/03/16 10:49:02;;;;;;;12.93;11.27;;;13.00;99.90;;;;;;5016818;28;20183;-81
2022/03/16 10:51:29;;;;;;;14.23;11.73;;;13.20;99.90;;;;;;5017442;28;20610;-81
2022/03/16 10:53:56;;;;;;;13.70;10.45;;;13.50;99.90;;;;;;5015768;28;20176;-82
2022/03/16 10:56:23;;;;;;;13.60;10.65;;;13.50;99.90;;;;;;5015373;28;20200;-82
2022/03/16 10:58:54;;;;;;;15.32;10.95;;;13.70;99.90;;;;;;5017764;28;20191;-82
2022/03/16 11:01:21;;;;;;;13.30;10.02;;;13.60;99.90;;;;;;5018089;28;20156;-82
2022/03/16 11:03:49;;;;;;;14.55;11.20;;;13.60;99.90;;;;;;5017233;28;20179;-82
2022/03/16 11:06:20;;;;;;;11.80;9.32;;;13.40;99.90;;;;;;5017037;28;20243;-81
2022/03/16 11:08:50;;;;;;;13.38;9.40;;;13.40;99.90;;;;;;4999468;28;20210;-82
2022/03/16 11:14:04;;;;;;;12.43;10.23;;;13.90;99.90;;;;;;5018281;28;20183;-82
2022/03/16 11:16:33;;;;;;;13.75;10.02;;;14.00;99.90;;;;;;5017240;28;20192;-81
2022/03/16 11:19:04;;;;;;;12.85;9.85;;;14.10;99.90;;;;;;5016862;28;20259;-81
2022/03/16 11:21:58;;;;;;;11.38;9.50;;;14.10;99.90;;;;;;5015879;28;20172;-81
2022/03/16 11:24:26;;;;;;;13.10;9.88;;;14.20;99.90;;;;;;5015938;28;20523;-81
2022/03/16 11:27:21;;;;;;;12.77;9.50;;;14.20;99.90;;;;;;4998151;28;20200;-80
2022/03/16 11:29:58;;;;;;;13.35;10.38;;;14.30;99.90;;;;;;4998160;28;20172;-80
2022/03/16 11:32:24;;;;;;;11.50;8.82;;;14.50;99.90;;;;;;5016516;28;20214;-80
2022/03/16 11:34:59;;;;;;;13.00;9.93;;;14.60;99.90;;;;;;4998346;28;20234;-80
2022/03/16 11:37:37;;;;;;;10.88;9.25;;;14.90;99.90;;;;;;5014539;28;20226;-80
2022/03/16 11:40:12;;;;;;;12.45;9.77;;;15.10;99.90;;;;;;5016254;28;20243;-80
2022/03/16 11:43:15;;;;;;;9.77;8.63;;;15.20;99.90;;;;;;4998207;28;20172;-81
2022/03/16 11:45:43;;;;;;;10.90;8.93;;;15.50;99.90;;;;;;4998146;28;20704;-80
2022/03/16 11:48:34;;;;;;;12.60;9.52;;;15.70;99.90;;;;;;4997523;28;20175;-80
2022/03/16 11:51:08;;;;;;;12.07;9.18;;;16.00;99.90;;;;;;5015519;28;20156;-80
2022/03/16 11:53:46;;;;;;;14.73;9.45;;;16.10;99.90;;;;;;4998236;28;20175;-80
2022/03/16 11:56:26;;;;;;;12.43;9.10;;;16.50;99.90;;;;;;4997872;28;20254;-80
2022/03/16 11:58:55;;;;;;;12.90;9.18;;;16.80;99.90;;;;;;4998138;28;20171;-80
2022/03/16 12:01:48;;;;;;;11.30;9.13;;;17.00;99.90;;;;;;5015060;28;20196;-80
2022/03/16 12:04:16;;;;;;;12.50;8.63;;;17.20;99.90;;;;;;5015806;28;20206;-80
2022/03/16 12:06:50;;;;;;;10.50;8.50;;;17.40;99.90;;;;;;5015110;28;20213;-80
2022/03/16 12:09:20;;;;;;;11.23;9.43;;;17.60;99.90;;;;;;5015551;28;20251;-80
2022/03/16 12:15:24;;;;;;;9.82;7.97;;;17.80;99.90;;;;;;5016049;28;20211;-80
2022/03/16 12:17:56;;;;;;;11.00;8.85;;;18.10;99.90;;;;;;5015578;28;20191;-80
2022/03/16 12:20:41;;;;;;;10.90;8.00;;;17.80;99.90;;;;;;5015474;28;20717;-81
2022/03/16 12:23:10;;;;;;;8.73;7.32;;;17.60;99.90;;;;;;4998042;28;20634;-81
2022/03/16 12:25:36;;;;;;;9.70;6.93;;;17.40;99.90;;;;;;5013981;28;20210;-80
2022/03/16 12:30:59;;;;;;;9.63;7.55;;;17.50;99.90;;;;;;5015685;28;20571;-80
2022/03/16 12:33:30;;;;;;;11.90;7.85;;;17.50;99.90;;;;;;4997597;28;20193;-80
2022/03/16 12:36:15;;;;;;;8.85;6.97;;;17.50;99.90;;;;;;5018507;28;20203;-80
2022/03/16 12:38:46;;;;;;;10.98;8.25;;;17.30;99.90;;;;;;4998046;28;20172;-80
2022/03/16 12:44:02;;;;;;;11.23;7.85;;;17.30;99.90;;;;;;5015642;28;20234;-80
2022/03/16 12:46:47;;;;;;;12.18;7.32;;;17.10;99.90;;;;;;5015137;28;20705;-81
2022/03/16 12:49:14;;;;;;;10.00;7.38;;;17.30;99.90;;;;;;5013419;28;20201;-81
2022/03/16 12:51:45;;;;;;;10.50;7.20;;;17.40;99.90;;;;;;5013455;28;20184;-81
2022/03/16 12:54:22;;;;;;;8.18;6.88;;;17.40;99.90;;;;;;5017815;28;20194;-79
2022/03/16 12:56:53;;;;;;;11.35;7.32;;;17.60;99.90;;;;;;5018436;28;20559;-79
2022/03/16 12:59:47;;;;;;;8.95;7.30;;;17.90;99.90;;;;;;5019262;28;20295;-79
2022/03/16 13:02:13;;;;;;;9.02;6.85;;;18.20;99.90;;;;;;4999451;28;20180;-79